Time;durP1;ratioP1;P1;durP2;ratioP2;P2;SDS_P1;SDS_P2;PMS_P1;PMS_P2;Temp;Humidity;BMP_temperature;BMP_pressure;BME280_temperature;BME280_humidity;BME280_pressure;Samples;Min_cycle;Max_cycle;Signal;HPM_P1;HPM_P2
2024/04/22 00:09:29;;;;;;;;;;;0.80;99.90;;;;;;22795427;26;20256;-75
2024/04/22 00:19:30;;;;;;;;;;;1.00;99.90;;;;;;22804586;26;19933;-75
2024/04/22 00:29:31;;;;;;;;;;;0.90;99.90;;;;;;22806520;26;19935;-75
2024/04/22 00:39:31;;;;;;;;;;;0.90;99.90;;;;;;22805983;26;20331;-75
2024/04/22 00:49:32;;;;;;;;;;;0.70;99.90;;;;;;22792847;26;20082;-75
2024/04/22 00:59:33;;;;;;;;;;;0.60;99.90;;;;;;22802364;26;19928;-75
2024/04/22 01:09:33;;;;;;;;;;;0.50;99.90;;;;;;22803858;26;20371;-75
2024/04/22 01:19:34;;;;;;;;;;;0.70;99.90;;;;;;22818014;26;19927;-75
2024/04/22 01:29:35;;;;;;;;;;;0.80;99.90;;;;;;22803680;26;20327;-75
2024/04/22 01:39:35;;;;;;;;;;;0.90;99.90;;;;;;22802182;26;19928;-75
2024/04/22 01:49:36;;;;;;;;;;;0.90;99.90;;;;;;22828489;26;20267;-75
2024/04/22 01:59:37;;;;;;;;;;;1.00;99.90;;;;;;22801450;26;19932;-75
2024/04/22 02:09:37;;;;;;;;;;;1.00;99.90;;;;;;22813930;26;19936;-75
2024/04/22 02:19:38;;;;;;;;;;;1.10;99.90;;;;;;22799772;26;20399;-75
2024/04/22 02:29:38;;;;;;;;;;;1.10;99.90;;;;;;22799539;26;19928;-75
2024/04/22 02:39:39;;;;;;;;;;;1.20;99.90;;;;;;22799840;26;19932;-75
2024/04/22 02:49:40;;;;;;;;;;;1.30;99.90;;;;;;22812048;26;19928;-75
2024/04/22 02:59:40;;;;;;;;;;;1.20;99.90;;;;;;22799142;26;19935;-75
2024/04/22 03:09:43;;;;;;;;;;;1.20;99.90;;;;;;22812279;26;19928;-75
2024/04/22 03:19:43;;;;;;;;;;;1.30;99.90;;;;;;22811432;26;19991;-75
2024/04/22 03:29:44;;;;;;;;;;;1.40;99.90;;;;;;22810888;26;20274;-75
2024/04/22 03:39:44;;;;;;;;;;;1.50;99.90;;;;;;22817585;26;19944;-75
2024/04/22 03:49:51;;;;;;;;;;;1.50;99.90;;;;;;22759330;26;19927;-76
2024/04/22 03:59:52;;;;;;;;;;;1.50;99.90;;;;;;22865167;26;19935;-76
2024/04/22 04:09:52;;;;;;;;;;;1.60;99.90;;;;;;22824820;26;20011;-76
2024/04/22 04:19:53;;;;;;;;;;;1.60;99.90;;;;;;22797700;26;19964;-76
2024/04/22 04:29:54;;;;;;;;;;;1.60;99.90;;;;;;22790005;26;20030;-77
2024/04/22 04:39:54;;;;;;;;;;;1.70;99.90;;;;;;22775315;26;19927;-76
2024/04/22 04:49:55;;;;;;;;;;;1.80;99.90;;;;;;22820804;26;19928;-75
2024/04/22 04:59:56;;;;;;;;;;;1.80;99.90;;;;;;22804362;26;19928;-76
2024/04/22 05:09:56;;;;;;;;;;;1.80;99.90;;;;;;22831521;26;19931;-77
2024/04/22 05:19:57;;;;;;;;;;;1.90;99.90;;;;;;22818080;26;20020;-76
2024/04/22 05:29:58;;;;;;;;;;;1.90;99.90;;;;;;22766406;26;19939;-76
2024/04/22 05:39:58;;;;;;;;;;;1.70;99.90;;;;;;22792720;26;20378;-76
2024/04/22 05:50:02;;;;;;;;;;;1.80;99.90;;;;;;22845348;26;19928;-76
2024/04/22 06:00:03;;;;;;;;;;;1.60;99.90;;;;;;22846677;26;20350;-76
2024/04/22 06:10:12;;;;;;;;;;;1.60;99.90;;;;;;22802252;26;19927;-75
2024/04/22 06:20:13;;;;;;;;;;;1.50;99.90;;;;;;22844564;26;20274;-75
2024/04/22 06:30:14;;;;;;;;;;;1.60;99.90;;;;;;22815250;26;19955;-76
2024/04/22 06:40:15;;;;;;;;;;;1.80;99.90;;;;;;22806923;26;19957;-76
2024/04/22 06:50:15;;;;;;;;;;;1.90;99.90;;;;;;22820969;26;19935;-75
2024/04/22 07:00:16;;;;;;;;;;;1.90;99.90;;;;;;22842810;26;19936;-76
2024/04/22 07:10:17;;;;;;;;;;;2.00;99.90;;;;;;22841054;26;19939;-75
2024/04/22 07:20:17;;;;;;;;;;;2.00;99.90;;;;;;22812332;26;19928;-76
2024/04/22 07:30:20;;;;;;;;;;;2.30;99.90;;;;;;22812391;26;19934;-75
2024/04/22 07:40:21;;;;;;;;;;;2.60;99.90;;;;;;22830980;26;20451;-76
2024/04/22 07:50:22;;;;;;;;;;;2.50;99.90;;;;;;22806907;26;19935;-75
2024/04/22 08:00:23;;;;;;;;;;;2.60;99.90;;;;;;22768929;26;19947;-76
2024/04/22 08:10:24;;;;;;;;;;;2.90;99.90;;;;;;22808576;26;19939;-76
2024/04/22 08:20:24;;;;;;;;;;;2.90;99.90;;;;;;22776470;26;19939;-75
2024/04/22 08:30:25;;;;;;;;;;;3.10;99.90;;;;;;22821959;26;20267;-76
2024/04/22 08:40:27;;;;;;;;;;;3.50;99.90;;;;;;22771332;26;19927;-76
2024/04/22 08:50:28;;;;;;;;;;;3.60;99.90;;;;;;22793007;26;20366;-76
2024/04/22 09:00:28;;;;;;;;;;;3.60;99.90;;;;;;22795275;26;20385;-75
2024/04/22 09:10:30;;;;;;;;;;;3.80;99.90;;;;;;22802096;26;19927;-76
2024/04/22 09:20:34;;;;;;;;;;;3.90;99.90;;;;;;22816498;26;19927;-76
2024/04/22 09:30:40;;;;;;;;;;;3.90;99.90;;;;;;22774201;26;19977;-76
2024/04/22 09:40:41;;;;;;;;;;;4.10;99.90;;;;;;22818483;26;20016;-76
2024/04/22 09:50:41;;;;;;;;;;;4.30;99.90;;;;;;22754503;26;20355;-76
2024/04/22 10:00:43;;;;;;;;;;;4.40;99.90;;;;;;22719608;26;20010;-76
2024/04/22 10:10:43;;;;;;;;;;;4.90;99.90;;;;;;22734926;26;19935;-76
2024/04/22 10:20:44;;;;;;;;;;;4.60;99.90;;;;;;22824073;26;20375;-76
2024/04/22 10:30:45;;;;;;;;;;;4.60;99.90;;;;;;22811274;26;19928;-75
2024/04/22 10:40:45;;;;;;;;;;;4.40;99.90;;;;;;22751813;26;20598;-76
2024/04/22 10:50:46;;;;;;;;;;;4.30;99.90;;;;;;22749200;26;19928;-76
2024/04/22 11:00:47;;;;;;;;;;;4.40;99.90;;;;;;22806295;26;20367;-76
2024/04/22 11:10:48;;;;;;;;;;;4.50;99.90;;;;;;22810583;26;19928;-76
2024/04/22 11:20:48;;;;;;;;;;;4.80;99.90;;;;;;22806547;26;19928;-76
2024/04/22 11:30:49;;;;;;;;;;;5.10;99.90;;;;;;22779178;26;19935;-76
2024/04/22 11:40:50;;;;;;;;;;;5.10;99.90;;;;;;22759066;26;20374;-76
2024/04/22 11:50:51;;;;;;;;;;;5.20;99.90;;;;;;22772173;26;20687;-76
2024/04/22 12:00:52;;;;;;;;;;;5.10;99.90;;;;;;22851799;26;20434;-76
2024/04/22 12:10:53;;;;;;;;;;;4.90;99.90;;;;;;22822388;26;19927;-76
2024/04/22 12:20:54;;;;;;;;;;;4.60;99.90;;;;;;22833970;26;19928;-75
2024/04/22 12:30:55;;;;;;;;;;;4.50;99.90;;;;;;22788953;26;19967;-76
2024/04/22 12:40:55;;;;;;;;;;;4.60;99.90;;;;;;22776222;26;19927;-75
2024/04/22 12:50:58;;;;;;;;;;;4.80;99.90;;;;;;22817874;26;19927;-75
2024/04/22 13:00:59;;;;;;;;;;;4.90;99.90;;;;;;22825417;26;19927;-75
2024/04/22 13:10:59;;;;;;;;;;;4.70;99.90;;;;;;22824105;26;19934;-76
2024/04/22 13:21:02;;;;;;;;;;;4.80;99.90;;;;;;22838197;26;19934;-75
2024/04/22 13:31:04;;;;;;;;;;;4.80;99.90;;;;;;22841636;26;19928;-75
2024/04/22 13:41:04;;;;;;;;;;;4.90;99.90;;;;;;22822521;26;19940;-75
2024/04/22 13:51:05;;;;;;;;;;;5.00;99.90;;;;;;22798392;26;20003;-75
2024/04/22 14:01:06;;;;;;;;;;;5.20;99.90;;;;;;22843918;26;19936;-75
2024/04/22 14:11:08;;;;;;;;;;;5.50;99.90;;;;;;22819363;26;19935;-75
2024/04/22 14:21:09;;;;;;;;;;;5.90;99.90;;;;;;22837059;26;19927;-75
2024/04/22 14:31:10;;;;;;;;;;;6.10;99.90;;;;;;22824703;26;19928;-75
2024/04/22 14:41:10;;;;;;;;;;;6.40;99.90;;;;;;22808111;26;19955;-75
2024/04/22 14:51:12;;;;;;;;;;;6.40;99.90;;;;;;22755097;26;20394;-75
2024/04/22 15:01:13;;;;;;;;;;;6.40;99.90;;;;;;22794504;26;20394;-73
2024/04/22 15:11:14;;;;;;;;;;;6.50;99.90;;;;;;22829387;26;19995;-75
2024/04/22 15:21:16;;;;;;;;;;;6.70;99.90;;;;;;22815830;26;19928;-75
2024/04/22 15:31:17;;;;;;;;;;;6.70;99.90;;;;;;22763195;26;20000;-76
2024/04/22 15:41:18;;;;;;;;;;;6.70;99.90;;;;;;22719897;26;19928;-75
2024/04/22 15:51:18;;;;;;;;;;;6.40;99.90;;;;;;22786624;26;20007;-75
2024/04/22 16:01:19;;;;;;;;;;;6.30;99.90;;;;;;22808258;26;20374;-75
2024/04/22 16:11:19;;;;;;;;;;;6.30;99.90;;;;;;22851425;26;20011;-75
2024/04/22 16:21:20;;;;;;;;;;;6.20;99.90;;;;;;22860848;26;19943;-76
2024/04/22 16:31:21;;;;;;;;;;;5.80;99.90;;;;;;22826427;26;19928;-75
2024/04/22 16:41:22;;;;;;;;;;;5.90;99.90;;;;;;22761308;26;19935;-75
2024/04/22 16:51:22;;;;;;;;;;;6.00;99.90;;;;;;22808913;26;19928;-76
2024/04/22 17:01:23;;;;;;;;;;;6.10;99.90;;;;;;22802298;26;20128;-77
2024/04/22 17:11:25;;;;;;;;;;;6.10;99.90;;;;;;22810961;26;19935;-77
2024/04/22 17:21:25;;;;;;;;;;;5.90;99.90;;;;;;22781889;26;19928;-77
2024/04/22 17:31:26;;;;;;;;;;;5.70;99.90;;;;;;22790837;26;19935;-77
2024/04/22 17:41:27;;;;;;;;;;;5.60;99.90;;;;;;22812782;26;19935;-77
2024/04/22 17:51:27;;;;;;;;;;;5.40;99.90;;;;;;22833411;26;19939;-77
2024/04/22 18:01:28;;;;;;;;;;;5.40;99.90;;;;;;22815428;26;19935;-75
2024/04/22 18:11:30;;;;;;;;;;;5.30;99.90;;;;;;22807953;26;19928;-75
2024/04/22 18:21:30;;;;;;;;;;;4.90;99.90;;;;;;22817586;26;19996;-75
2024/04/22 18:31:33;;;;;;;;;;;4.80;99.90;;;;;;22856718;26;19928;-76
2024/04/22 18:41:34;;;;;;;;;;;4.30;99.90;;;;;;22842692;26;20354;-76
2024/04/22 18:51:38;;;;;;;;;;;4.10;99.90;;;;;;22782829;26;20457;-76
2024/04/22 19:01:39;;;;;;;;;;;3.80;99.90;;;;;;22733942;26;19935;-76
2024/04/22 19:11:40;;;;;;;;;;;3.80;99.90;;;;;;22807170;26;20540;-76
2024/04/22 19:21:41;;;;;;;;;;;3.90;99.90;;;;;;22825736;26;19935;-76
2024/04/22 19:31:43;;;;;;;;;;;3.80;99.90;;;;;;22777124;26;19935;-75
2024/04/22 19:41:44;;;;;;;;;;;3.90;99.90;;;;;;22729807;26;20340;-76
2024/04/22 19:51:45;;;;;;;;;;;3.80;99.90;;;;;;22721342;26;19928;-76
2024/04/22 20:01:45;;;;;;;;;;;3.80;99.90;;;;;;22785935;25;19935;-76
2024/04/22 20:11:46;;;;;;;;;;;3.70;99.90;;;;;;22823786;26;20336;-76
2024/04/22 20:21:47;;;;;;;;;;;3.80;99.90;;;;;;22821671;26;19928;-76
2024/04/22 20:31:48;;;;;;;;;;;4.00;99.90;;;;;;22782898;26;19928;-77
2024/04/22 20:41:48;;;;;;;;;;;3.80;99.90;;;;;;22816668;26;19935;-77
2024/04/22 20:51:50;;;;;;;;;;;3.60;99.90;;;;;;22807002;26;19928;-76
2024/04/22 21:01:50;;;;;;;;;;;3.60;99.90;;;;;;22815388;26;20286;-77
2024/04/22 21:11:51;;;;;;;;;;;3.70;99.90;;;;;;22841665;26;19928;-77
2024/04/22 21:21:51;;;;;;;;;;;3.70;99.90;;;;;;22847542;26;19955;-77
2024/04/22 21:31:52;;;;;;;;;;;3.70;99.90;;;;;;22865619;26;20447;-77
2024/04/22 21:41:53;;;;;;;;;;;3.80;99.90;;;;;;22846984;26;19995;-77
2024/04/22 21:51:53;;;;;;;;;;;3.70;99.90;;;;;;22841556;26;20386;-76
2024/04/22 22:02:13;;;;;;;;;;;3.70;99.90;;;;;;22834269;26;19927;-76
2024/04/22 22:12:14;;;;;;;;;;;3.60;99.90;;;;;;22875075;26;19935;-76
2024/04/22 22:22:15;;;;;;;;;;;3.70;99.90;;;;;;22858906;26;19934;-76
2024/04/22 22:32:16;;;;;;;;;;;3.70;99.90;;;;;;22860422;26;19928;-76
2024/04/22 22:42:16;;;;;;;;;;;3.70;99.90;;;;;;22859204;26;19934;-76
2024/04/22 22:52:17;;;;;;;;;;;3.70;99.90;;;;;;22858514;26;20378;-76
2024/04/22 23:02:17;;;;;;;;;;;3.80;99.90;;;;;;22855580;26;19928;-76
2024/04/22 23:12:18;;;;;;;;;;;3.80;99.90;;;;;;22871163;26;19934;-76
2024/04/22 23:22:19;;;;;;;;;;;3.80;99.90;;;;;;22824159;26;19927;-76
2024/04/22 23:32:19;;;;;;;;;;;3.80;99.90;;;;;;22855383;26;19928;-76
2024/04/22 23:42:20;;;;;;;;;;;3.40;99.90;;;;;;22869299;26;19935;-76
2024/04/22 23:52:21;;;;;;;;;;;3.00;99.90;;;;;;22869177;26;19927;-77
